createdAt,value
2022-09-27T00:01:45.752Z,7.33
2022-09-27T00:06:57.620Z,7.50
2022-09-27T00:09:23.945Z,7.00
2022-09-27T00:11:50.275Z,8.00
2022-09-27T00:14:16.608Z,6.00
2022-09-27T00:16:42.955Z,6.33
2022-09-27T00:19:10.247Z,7.00
2022-09-27T00:21:36.912Z,6.00
2022-09-27T00:24:03.223Z,6.33
2022-09-27T00:26:29.549Z,7.00
2022-09-27T00:28:55.882Z,6.00
2022-09-27T00:31:22.356Z,6.33
2022-09-27T00:33:48.767Z,6.00
2022-09-27T00:36:15.955Z,7.00
2022-09-27T00:38:45.099Z,8.00
2022-09-27T00:41:12.355Z,7.25
2022-09-27T00:43:38.716Z,7.50
2022-09-27T00:46:05.082Z,6.67
2022-09-27T00:48:31.439Z,9.00
2022-09-27T00:50:57.757Z,5.00
2022-09-27T00:53:24.969Z,8.50
2022-09-27T00:55:51.298Z,8.00
2022-09-27T00:58:17.648Z,6.00
2022-09-27T01:00:43.978Z,8.00
2022-09-27T01:03:10.272Z,7.00
2022-09-27T01:05:36.644Z,7.00
2022-09-27T01:08:03.016Z,9.33
2022-09-27T01:10:29.365Z,8.00
2022-09-27T01:12:55.709Z,7.00
2022-09-27T01:15:22.066Z,7.00
2022-09-27T01:17:48.394Z,6.67
2022-09-27T01:20:15.665Z,8.25
2022-09-27T01:22:41.999Z,9.00
2022-09-27T01:25:08.339Z,8.00
2022-09-27T01:27:34.656Z,8.00
2022-09-27T01:30:01.882Z,9.25
2022-09-27T01:32:28.207Z,8.33
2022-09-27T01:34:54.512Z,7.67
2022-09-27T01:37:20.846Z,6.33
2022-09-27T01:39:47.184Z,8.00
2022-09-27T01:42:21.281Z,8.17
2022-09-27T01:44:48.498Z,9.00
2022-09-27T01:47:14.831Z,7.50
2022-09-27T01:49:41.158Z,6.67
2022-09-27T01:54:54.141Z,6.67
2022-09-27T01:57:20.477Z,8.00
2022-09-27T01:59:47.710Z,8.00
2022-09-27T02:02:14.117Z,9.00
2022-09-27T02:04:40.503Z,7.00
2022-09-27T02:09:50.727Z,9.00
2022-09-27T02:12:17.092Z,7.00
2022-09-27T02:14:43.429Z,8.67
2022-09-27T02:17:09.734Z,7.33
2022-09-27T02:19:37.135Z,10.50
2022-09-27T02:24:51.333Z,8.67
2022-09-27T02:27:17.685Z,9.00
2022-09-27T02:29:44.891Z,8.25
2022-09-27T02:32:12.074Z,7.25
2022-09-27T02:34:38.451Z,8.00
2022-09-27T02:39:58.895Z,7.67
2022-09-27T02:42:25.219Z,7.67
2022-09-27T02:44:51.554Z,8.67
2022-09-27T02:47:18.765Z,8.25
2022-09-27T02:49:45.953Z,7.25
2022-09-27T02:55:06.332Z,7.00
2022-09-27T02:57:32.703Z,10.67
2022-09-27T02:59:59.922Z,8.75
2022-09-27T03:02:26.355Z,8.00
2022-09-27T03:04:52.693Z,7.33
2022-09-27T03:10:13.999Z,8.00
2022-09-27T03:12:40.384Z,7.67
2022-09-27T03:15:06.739Z,8.00
2022-09-27T03:17:33.934Z,8.00
2022-09-27T03:20:00.276Z,7.33
2022-09-27T03:25:12.094Z,8.00
2022-09-27T03:27:38.449Z,8.00
2022-09-27T03:30:04.856Z,7.33
2022-09-27T03:32:31.192Z,6.00
2022-09-27T03:34:58.400Z,9.00
2022-09-27T03:40:18.716Z,8.00
2022-09-27T03:42:49.490Z,8.00
2022-09-27T03:45:16.175Z,9.00
2022-09-27T03:47:42.548Z,8.00
2022-09-27T03:50:08.989Z,6.00
2022-09-27T03:55:33.070Z,9.17
2022-09-27T03:57:59.497Z,10.00
2022-09-27T04:00:25.865Z,8.00
2022-09-27T04:02:52.248Z,7.00
2022-09-27T04:05:19.523Z,9.75
2022-09-27T04:10:32.777Z,9.33
2022-09-27T04:12:59.092Z,7.00
2022-09-27T04:15:25.464Z,10.00
2022-09-27T04:17:51.899Z,10.00
2022-09-27T04:20:18.383Z,12.50
2022-09-27T04:25:39.507Z,10.00
2022-09-27T04:28:07.787Z,15.20
2022-09-27T04:30:34.308Z,12.50
2022-09-27T04:33:01.558Z,10.67
2022-09-27T04:35:28.015Z,11.00
2022-09-27T04:40:38.226Z,12.00
2022-09-27T04:43:05.533Z,14.00
2022-09-27T04:45:31.964Z,15.00
2022-09-27T04:47:58.377Z,13.50
2022-09-27T04:50:25.718Z,16.67
2022-09-27T04:55:36.906Z,18.00
2022-09-27T04:58:04.188Z,16.33
2022-09-27T05:00:31.479Z,16.00
2022-09-27T05:02:58.889Z,16.67
2022-09-27T05:05:25.362Z,13.00
2022-09-27T05:10:46.666Z,18.00
2022-09-27T05:13:14.016Z,16.33
2022-09-27T05:15:41.295Z,17.67
2022-09-27T05:18:07.736Z,14.00
2022-09-27T05:20:35.016Z,18.00
2022-09-27T05:25:57.248Z,18.33
2022-09-27T05:28:23.704Z,19.00
2022-09-27T05:30:51.125Z,18.67
2022-09-27T05:33:18.495Z,20.00
2022-09-27T05:35:45.928Z,19.67
2022-09-27T05:40:56.379Z,19.00
2022-09-27T05:43:22.841Z,13.50
2022-09-27T05:45:49.310Z,19.00
2022-09-27T05:48:16.730Z,21.00
2022-09-27T05:50:43.155Z,25.50
2022-09-27T05:56:04.808Z,23.00
2022-09-27T05:58:32.177Z,25.00
2022-09-27T06:00:58.635Z,27.00
2022-09-27T06:03:25.075Z,25.00
2022-09-27T06:05:51.605Z,23.00
2022-09-27T06:11:13.881Z,23.00
2022-09-27T06:13:41.272Z,20.67
2022-09-27T06:16:07.751Z,23.50
2022-09-27T06:18:35.117Z,24.67
2022-09-27T06:21:02.497Z,21.67
2022-09-27T06:26:24.866Z,23.00
2022-09-27T06:28:52.223Z,20.00
2022-09-27T06:31:19.675Z,24.00
2022-09-27T06:33:46.203Z,28.00
2022-09-27T06:36:13.617Z,22.33
2022-09-27T06:41:24.967Z,21.00
2022-09-27T06:43:51.381Z,18.00
2022-09-27T06:46:18.761Z,20.50
2022-09-27T06:48:45.244Z,24.50
2022-09-27T06:51:11.699Z,23.00
2022-09-27T06:56:23.874Z,19.67
2022-09-27T06:58:51.219Z,18.33
2022-09-27T07:01:17.764Z,18.00
2022-09-27T07:03:45.195Z,20.00
2022-09-27T07:06:11.666Z,19.00
2022-09-27T07:11:24.055Z,18.67
2022-09-27T07:13:50.491Z,18.50
2022-09-27T07:16:16.970Z,15.00
2022-09-27T07:18:43.437Z,18.00
2022-09-27T07:21:09.866Z,21.50
2022-09-27T07:26:30.216Z,18.50
2022-09-27T07:28:57.516Z,14.00
2022-09-27T07:31:24.863Z,18.33
2022-09-27T07:33:52.214Z,17.00
2022-09-27T07:36:19.609Z,18.67
2022-09-27T07:41:31.948Z,20.33
2022-09-27T07:43:59.297Z,19.33
2022-09-27T07:46:26.659Z,23.33
2022-09-27T07:48:54.023Z,20.33
2022-09-27T07:51:20.463Z,21.00
2022-09-27T07:56:31.755Z,18.50
2022-09-27T07:58:59.115Z,23.67
2022-09-27T08:01:25.600Z,20.50
2022-09-27T08:03:52.044Z,17.00
2022-09-27T08:06:18.535Z,20.50
2022-09-27T08:11:29.159Z,24.00
2022-09-27T08:13:56.528Z,18.67
2022-09-27T08:16:23.888Z,20.67
2022-09-27T08:18:51.245Z,19.00
2022-09-27T08:21:18.615Z,19.33
2022-09-27T08:26:39.169Z,13.00
2022-09-27T08:29:07.501Z,13.40
2022-09-27T08:31:34.788Z,14.33
2022-09-27T08:34:01.174Z,5.67
2022-09-27T08:36:29.480Z,12.40
2022-09-27T08:41:42.893Z,17.33
2022-09-27T08:44:09.289Z,17.00
2022-09-27T08:46:37.601Z,16.60
2022-09-27T08:49:04.833Z,14.33
2022-09-27T08:51:31.266Z,13.50
2022-09-27T08:56:42.607Z,15.67
2022-09-27T08:59:09.031Z,15.00
2022-09-27T09:01:35.486Z,15.50
2022-09-27T09:04:01.929Z,15.00
2022-09-27T09:06:28.443Z,16.00
2022-09-27T09:11:40.907Z,16.00
2022-09-27T09:14:12.751Z,14.67
2022-09-27T09:16:39.968Z,17.00
2022-09-27T09:19:06.416Z,14.50
2022-09-27T09:21:32.837Z,20.00
2022-09-27T09:24:00.266Z,20.00
2022-09-27T09:26:30.271Z,17.00
2022-09-27T09:28:57.614Z,18.00
2022-09-27T09:31:24.115Z,19.00
2022-09-27T09:33:51.438Z,17.00
2022-09-27T09:36:17.872Z,20.50
2022-09-27T09:38:44.258Z,14.00
2022-09-27T09:41:10.754Z,20.50
2022-09-27T09:43:37.232Z,21.50
2022-09-27T09:46:03.748Z,25.00
2022-09-27T09:48:30.260Z,22.00
2022-09-27T09:50:56.681Z,22.00
2022-09-27T09:53:24.043Z,20.00
2022-09-27T09:55:51.301Z,20.33
2022-09-27T09:58:19.953Z,18.50
2022-09-27T10:00:46.643Z,21.50
2022-09-27T10:03:13.094Z,20.00
2022-09-27T10:05:40.392Z,15.33
2022-09-27T10:08:07.678Z,14.33
2022-09-27T10:10:34.105Z,18.00
2022-09-27T10:13:01.611Z,18.00
2022-09-27T10:15:28.983Z,20.67
2022-09-27T10:17:55.395Z,18.50
2022-09-27T10:20:21.823Z,20.50
2022-09-27T10:22:49.218Z,31.50
2022-09-27T10:25:15.692Z,35.00
2022-09-27T10:27:42.131Z,33.50
2022-09-27T10:30:08.595Z,33.00
2022-09-27T10:32:35.060Z,32.00
2022-09-27T10:35:01.604Z,33.50
2022-09-27T10:37:28.060Z,30.00
2022-09-27T10:39:54.524Z,8.00
2022-09-27T10:42:21.000Z,29.00
2022-09-27T10:44:47.454Z,31.00
2022-09-27T10:47:14.828Z,26.00
2022-09-27T10:49:41.285Z,26.00
2022-09-27T10:52:07.739Z,28.50
2022-09-27T10:54:34.198Z,24.50
2022-09-27T10:59:44.997Z,27.00
2022-09-27T11:02:11.445Z,30.00
2022-09-27T11:04:37.985Z,22.00
2022-09-27T11:07:04.496Z,29.50
2022-09-27T11:09:30.955Z,29.00
2022-09-27T11:14:51.183Z,30.00
2022-09-27T11:17:18.569Z,31.50
2022-09-27T11:19:44.997Z,27.00
2022-09-27T11:22:12.383Z,30.50
2022-09-27T11:24:38.826Z,41.50
2022-09-27T11:29:59.222Z,27.50
2022-09-27T11:32:25.774Z,27.50
2022-09-27T11:34:52.219Z,28.00
2022-09-27T11:37:18.667Z,26.00
2022-09-27T11:39:45.119Z,28.50
2022-09-27T11:45:13.330Z,31.00
2022-09-27T11:47:42.845Z,27.50
2022-09-27T11:50:09.409Z,28.00
2022-09-27T11:52:35.874Z,31.50
2022-09-27T11:55:02.335Z,32.00
2022-09-27T12:00:23.791Z,33.00
2022-09-27T12:02:51.303Z,29.00
2022-09-27T12:05:17.820Z,38.00
2022-09-27T12:07:44.482Z,42.00
2022-09-27T12:10:11.851Z,33.50
2022-09-27T12:15:22.201Z,31.50
2022-09-27T12:17:48.660Z,35.00
2022-09-27T12:20:16.074Z,33.50
2022-09-27T12:23:00.154Z,37.33
2022-09-27T12:25:26.996Z,36.00
2022-09-27T12:30:37.348Z,31.50
2022-09-27T12:33:03.795Z,29.50
2022-09-27T12:35:30.263Z,24.50
2022-09-27T12:37:57.668Z,26.67
2022-09-27T12:40:24.161Z,25.00
2022-09-27T12:45:34.553Z,33.50
2022-09-27T12:48:01.022Z,30.50
2022-09-27T12:50:27.471Z,27.50
2022-09-27T12:52:53.946Z,26.00
2022-09-27T12:55:21.314Z,28.50
2022-09-27T13:00:41.760Z,23.00
2022-09-27T13:03:15.783Z,23.00
2022-09-27T13:05:42.832Z,28.00
2022-09-27T13:08:09.269Z,21.00
2022-09-27T13:10:36.628Z,22.67
2022-09-27T13:15:57.985Z,21.00
2022-09-27T13:18:24.455Z,23.00
2022-09-27T13:20:50.915Z,24.00
2022-09-27T13:23:18.308Z,19.00
2022-09-27T13:25:44.709Z,19.00
2022-09-27T13:30:55.814Z,22.33
2022-09-27T13:33:23.232Z,18.67
2022-09-27T13:35:49.662Z,20.00
2022-09-27T13:38:17.072Z,19.33
2022-09-27T13:40:43.562Z,20.00
2022-09-27T13:45:54.149Z,22.00
2022-09-27T13:48:20.591Z,21.00
2022-09-27T13:50:47.941Z,23.33
2022-09-27T13:53:14.401Z,19.00
2022-09-27T13:55:41.778Z,21.00
2022-09-27T14:01:02.373Z,21.50
2022-09-27T14:03:28.846Z,17.00
2022-09-27T14:05:55.292Z,23.00
2022-09-27T14:08:22.640Z,19.00
2022-09-27T14:10:49.083Z,21.50
2022-09-27T14:16:09.727Z,22.00
2022-09-27T14:18:37.199Z,21.67
2022-09-27T14:21:04.585Z,23.00
2022-09-27T14:23:31.031Z,21.00
2022-09-27T14:25:58.403Z,20.67
2022-09-27T14:31:08.862Z,22.00
2022-09-27T14:33:35.337Z,21.50
2022-09-27T14:36:01.784Z,22.00
2022-09-27T14:38:37.687Z,20.50
2022-09-27T14:41:04.869Z,22.00
2022-09-27T14:46:17.199Z,21.40
2022-09-27T14:48:43.699Z,19.00
2022-09-27T14:51:14.032Z,20.50
2022-09-27T14:53:41.167Z,22.50
2022-09-27T14:56:07.787Z,23.50
2022-09-27T15:01:19.382Z,22.00
2022-09-27T15:03:46.892Z,21.67
2022-09-27T15:06:13.441Z,19.50
2022-09-27T15:08:39.892Z,20.50
2022-09-27T15:11:07.283Z,20.67
2022-09-27T15:16:27.711Z,20.00
2022-09-27T15:18:55.148Z,21.33
2022-09-27T15:21:21.602Z,21.50
2022-09-27T15:23:48.060Z,20.50
2022-09-27T15:26:14.508Z,20.50
2022-09-27T15:31:36.021Z,17.00
2022-09-27T15:34:02.544Z,20.00
2022-09-27T15:36:28.975Z,20.50
2022-09-27T15:38:55.408Z,18.00
2022-09-27T15:41:21.943Z,19.50
2022-09-27T15:46:42.323Z,20.00
2022-09-27T15:49:09.129Z,23.50
2022-09-27T15:51:35.551Z,20.00
2022-09-27T15:54:01.975Z,21.50
2022-09-27T15:56:28.472Z,18.00
2022-09-27T16:01:40.031Z,17.33
2022-09-27T16:04:07.477Z,22.00
2022-09-27T16:06:34.947Z,20.00
2022-09-27T16:09:01.390Z,22.50
2022-09-27T16:11:27.868Z,21.00
2022-09-27T16:16:40.135Z,20.67
2022-09-27T16:19:07.526Z,23.00
2022-09-27T16:21:34.152Z,20.00
2022-09-27T16:24:05.949Z,17.67
2022-09-27T16:26:32.752Z,19.50
2022-09-27T16:31:53.117Z,27.00
2022-09-27T16:34:20.561Z,20.67
2022-09-27T16:36:47.974Z,19.33
2022-09-27T16:39:14.496Z,23.00
2022-09-27T16:41:40.989Z,21.00
2022-09-27T16:46:52.425Z,20.00
2022-09-27T16:49:20.039Z,15.33
2022-09-27T16:51:46.464Z,20.00
2022-09-27T16:54:13.862Z,20.67
2022-09-27T16:56:41.290Z,20.33
2022-09-27T17:01:51.879Z,20.00
2022-09-27T17:04:18.471Z,22.50
2022-09-27T17:06:45.022Z,20.00
2022-09-27T17:09:12.398Z,16.00
2022-09-27T17:11:38.940Z,22.00
2022-09-27T17:16:50.562Z,22.00
2022-09-27T17:19:17.315Z,21.50
2022-09-27T17:21:44.004Z,22.00
2022-09-27T17:24:10.683Z,20.50
2022-09-27T17:26:37.299Z,23.00
2022-09-27T17:31:59.550Z,23.00
2022-09-27T17:34:27.146Z,19.67
2022-09-27T17:36:53.626Z,23.00
2022-09-27T17:39:20.128Z,20.00
2022-09-27T17:41:46.684Z,23.00
2022-09-27T17:46:59.097Z,19.00
2022-09-27T17:49:25.675Z,21.00
2022-09-27T17:51:52.562Z,25.00
2022-09-27T17:54:19.064Z,23.00
2022-09-27T17:56:45.599Z,24.00
2022-09-27T18:02:07.486Z,24.50
2022-09-27T18:04:35.090Z,22.00
2022-09-27T18:07:01.643Z,23.00
2022-09-27T18:09:28.203Z,22.50
2022-09-27T18:11:54.906Z,15.50
2022-09-27T18:17:06.422Z,25.50
2022-09-27T18:19:32.958Z,22.00
2022-09-27T18:21:59.603Z,25.00
2022-09-27T18:24:26.205Z,22.00
2022-09-27T18:26:52.840Z,24.00
2022-09-27T18:32:03.437Z,28.50
2022-09-27T18:34:30.106Z,25.50
2022-09-27T18:36:56.759Z,29.00
2022-09-27T18:39:24.314Z,22.33
2022-09-27T18:41:51.072Z,30.00
2022-09-27T18:47:03.965Z,26.00
2022-09-27T18:49:34.028Z,21.33
2022-09-27T18:52:00.694Z,25.00
2022-09-27T18:54:27.272Z,31.00
2022-09-27T18:56:53.923Z,27.50
2022-09-27T19:02:16.568Z,26.50
2022-09-27T19:04:43.263Z,24.50
2022-09-27T19:07:09.795Z,26.00
2022-09-27T19:09:37.556Z,32.33
2022-09-27T19:12:05.071Z,27.00
2022-09-27T19:17:15.728Z,24.00
2022-09-27T19:19:42.441Z,24.50
2022-09-27T19:22:09.053Z,32.50
2022-09-27T19:24:35.571Z,29.00
2022-09-27T19:27:02.339Z,27.50
2022-09-27T19:29:29.802Z,25.00
2022-09-27T19:31:56.300Z,24.00
2022-09-27T19:34:22.824Z,23.00
2022-09-27T19:36:49.284Z,20.00
2022-09-27T19:39:15.945Z,25.50
2022-09-27T19:41:43.404Z,24.33
2022-09-27T19:44:10.992Z,23.00
2022-09-27T19:46:37.606Z,21.00
2022-09-27T19:49:04.262Z,23.00
2022-09-27T19:51:30.774Z,23.00
2022-09-27T19:53:58.129Z,20.00
2022-09-27T19:56:24.598Z,23.00
2022-09-27T19:58:51.039Z,20.50
2022-09-27T20:01:18.411Z,20.50
2022-09-27T20:03:44.838Z,20.50
2022-09-27T20:06:11.337Z,20.50
2022-09-27T20:08:38.709Z,21.67
2022-09-27T20:11:06.720Z,24.67
2022-09-27T20:13:33.295Z,20.50
2022-09-27T20:15:59.795Z,22.50
2022-09-27T20:18:26.293Z,24.00
2022-09-27T20:20:52.739Z,21.00
2022-09-27T20:23:20.010Z,14.33
2022-09-27T20:25:46.412Z,13.50
2022-09-27T20:28:13.668Z,14.67
2022-09-27T20:30:40.101Z,20.00
2022-09-27T20:33:06.545Z,19.50
2022-09-27T20:35:33.841Z,17.00
2022-09-27T20:38:00.268Z,18.00
2022-09-27T20:40:26.705Z,15.00
2022-09-27T20:42:53.967Z,14.33
2022-09-27T20:45:20.375Z,16.00
2022-09-27T20:50:41.541Z,12.67
2022-09-27T20:53:08.825Z,13.67
2022-09-27T20:55:37.102Z,13.40
2022-09-27T20:58:03.566Z,11.50
2022-09-27T21:00:31.908Z,14.60
2022-09-27T21:05:42.354Z,11.00
2022-09-27T21:08:08.823Z,10.50
2022-09-27T21:10:35.306Z,13.00
2022-09-27T21:13:01.722Z,9.00
2022-09-27T21:15:28.145Z,9.00
2022-09-27T21:20:39.368Z,9.50
2022-09-27T21:23:05.776Z,7.00
2022-09-27T21:25:32.212Z,10.00
2022-09-27T21:27:58.644Z,11.50
2022-09-27T21:30:25.001Z,8.50
2022-09-27T21:35:45.993Z,9.00
2022-09-27T21:38:15.108Z,7.17
2022-09-27T21:40:41.562Z,10.00
2022-09-27T21:43:07.981Z,9.67
2022-09-27T21:45:34.327Z,7.33
2022-09-27T21:50:55.355Z,10.00
2022-09-27T21:53:22.557Z,8.25
2022-09-27T21:55:48.879Z,7.33
2022-09-27T21:58:16.091Z,8.00
2022-09-27T22:00:42.445Z,7.00
2022-09-27T22:06:03.586Z,8.00
2022-09-27T22:08:29.964Z,7.00
2022-09-27T22:10:56.279Z,7.00
2022-09-27T22:13:22.579Z,4.00
2022-09-27T22:15:48.944Z,7.00
2022-09-27T22:21:00.882Z,8.25
2022-09-27T22:23:27.218Z,7.00
2022-09-27T22:25:54.404Z,8.00
2022-09-27T22:28:20.757Z,8.67
2022-09-27T22:30:47.137Z,7.00
2022-09-27T22:35:57.308Z,7.50
2022-09-27T22:38:23.638Z,8.00
2022-09-27T22:40:50.008Z,8.00
2022-09-27T22:43:16.431Z,10.33
2022-09-27T22:45:42.745Z,6.33
2022-09-27T22:51:03.701Z,8.33
2022-09-27T22:53:30.897Z,8.00
2022-09-27T22:56:01.851Z,9.75
2022-09-27T22:58:30.311Z,8.00
2022-09-27T23:00:56.717Z,7.67
2022-09-27T23:06:07.123Z,6.67
2022-09-27T23:08:33.467Z,8.00
2022-09-27T23:10:59.823Z,8.00
2022-09-27T23:13:26.174Z,7.33
2022-09-27T23:15:52.570Z,7.00
2022-09-27T23:21:02.716Z,6.00
2022-09-27T23:23:29.035Z,8.00
2022-09-27T23:25:55.361Z,6.67
2022-09-27T23:28:21.713Z,7.33
2022-09-27T23:30:48.060Z,6.00
2022-09-27T23:36:07.960Z,6.33
2022-09-27T23:38:34.292Z,7.33
2022-09-27T23:41:00.673Z,7.00
2022-09-27T23:43:27.126Z,7.33
2022-09-27T23:45:53.442Z,8.67
2022-09-27T23:51:04.548Z,6.33
2022-09-27T23:53:31.750Z,8.00
2022-09-27T23:55:58.105Z,5.00
2022-09-27T23:58:24.440Z,8.00
